Oklahoma City, OK (73195)

4:12 PM CDT on October 21, 2014 (GMT -0500)
Penshurst 3rd | Change Station
CLOSE
Current Station
Personal Weather Station
Location: Oklahoma CIty, OK
Elevation: 1200 ft
Nearby Weather Stations

Elev 1200 ft 35.54 °N, 97.56 °W | Updated 29 seconds ago

Partly Cloudy
Partly Cloudy
80.7 °F
Feels Like 81 °F
N
0.0
Wind Variable Wind from ESE
Gusts 0.0 mph

Today
High -- | Low -- °F
--% Chance of Precip.
Yesterday
High -- | Low -- °F
Precip. -- in
7:41 AM 6:47 PM
Waning Crescent, 4% visible
Pressure 29.99 in
Visibility 10.0 miles
Clouds Clear
Heat Index 81 °F
Dew Point 60 °F
Humidity 50%
Rainfall 0.00 in
Snow Depth Not available.
UV 3 out of 12
Pollen 5.60 out of 12
Ozone Good
PM2.5 Moderate
Flu Activity No Activity
METAR KPWA 212053Z 17008KT 10SM CLR 28/14 A3003 RMK AO2 SLP156 T02780144 56018

More Conditions Fewer Conditions

Pressure 29.99 in
Visibility 10.0 miles
Clouds Clear
Heat Index 81 °F
Dew Point 60 °F
Humidity 50%
Rainfall 0.00 in
Snow Depth Not available.
UV 3 out of 12
Pollen 5.60 out of 12
Ozone Good
PM2.5 Moderate
Flu Activity No Activity
METAR KPWA 212053Z 17008KT 10SM CLR 28/14 A3003 RMK AO2 SLP156 T02780144 56018

More Conditions Fewer Conditions

10-Day Weather Forecast

Almanac

Astronomy

Oct. 21, 2014 Rise Set
Actual Time 7:41 AM CDT 6:47 PM CDT
Civil Twilight 7:15 AM CDT 7:12 PM CDT
Nautical Twilight 6:46 AM CDT 7:42 PM CDT
Astronomical Twilight 6:16 AM CDT 8:12 PM CDT
Moon 5:31 AM CDT 5:38 PM CDT
Length of Visible Light 11h 57m
Length of Day
11h 05m
Tomorrow will be 2m 6s shorter.
Waning Crescent, 4% of the Moon is Illuminated
Today
Waning Crescent
Oct 23
New
Oct 30
First Quarter
Nov 6
Full
Nov 14
Last Quarter

Today's Extremes

State Highs State Lows

Community

WunderPhotos

Upload Photos

1,763,779 photos uploaded!

WunderBlogs® & News

Nearby

Air Quality

  Air Quality AQ Index Pollutant
Yesterday Good
PM2.5
Yesterday Good
OZONE
Current Moderate
PM2.5
Current Good
OZONE
Tuesday Moderate
PM2.5
Tuesday Good
OZONE
Wednesday Moderate
PM2.5
Wednesday Moderate
OZONE
Thursday Moderate
PM2.5
Thursday Moderate
OZONE
Friday Moderate
OZONE
Friday Good
PM2.5
Saturday Moderate
OZONE
Saturday Good
PM2.5

Snow Depth

Station Depth Elevation
No new snow has been reported.

Earthquake Activity

City Distance Mag. Time & Date
Cherokee, Oklahoma 87 miles 2.5 8:27 AM CDT
2014-10-21
Anthony, Kansas 104 miles 3.0 6:55 AM CDT
2014-10-21
Stillwater, Oklahoma 51 miles 2.5 11:26 PM CDT
2014-10-20
Medford, Oklahoma 82 miles 3.2 7:46 PM CDT
2014-10-20
Minimum magnitude displayed is 2.5.

Coastal Water Temperatures

Place Temperature
No Stations Reporting

Nearby Weather Stations